Time;durP1;ratioP1;P1;durP2;ratioP2;P2;SDS_P1;SDS_P2;PMS_P1;PMS_P2;Temp;Humidity;BMP_temperature;BMP_pressure;BME280_temperature;BME280_humidity;BME280_pressure;Samples;Min_cycle;Max_cycle;Signal;HPM_P1;HPM_P2
2021/04/02 00:29:50;;;;;;;24.77;14.25;;;;;;;11.27;65.94;98646.55;4145387;80;72833;-92
2021/04/02 00:35:58;;;;;;;27.37;14.53;;;;;;;11.30;66.69;98649.88;4153195;84;21222;-93
2021/04/02 00:42:00;;;;;;;33.33;16.42;;;;;;;11.28;67.24;98649.48;4156899;84;21369;-93
2021/04/02 00:48:06;;;;;;;25.37;15.03;;;;;;;10.98;67.16;98639.39;4146662;84;21194;-92
2021/04/02 00:54:07;;;;;;;32.03;17.80;;;;;;;11.04;68.26;98646.06;4154392;84;22246;-93
2021/04/02 01:00:13;;;;;;;33.53;17.62;;;;;;;11.13;68.46;98660.97;4151693;84;21277;-94
2021/04/02 01:06:20;;;;;;;31.35;17.25;;;;;;;10.96;68.49;98664.42;4148364;84;21245;-93
2021/04/02 01:12:23;;;;;;;34.88;16.35;;;;;;;10.94;68.84;98661.89;4149445;84;21371;-91
2021/04/02 01:18:57;;;;;;;31.20;15.90;;;;;;;10.81;70.93;98672.39;4147323;84;21199;-92
2021/04/02 01:25:20;;;;;;;25.62;12.90;;;;;;;10.43;71.07;98668.84;4150078;84;21312;-93
2021/04/02 01:31:27;;;;;;;32.20;13.98;;;;;;;9.99;72.80;98666.72;4152497;84;21205;-92
2021/04/02 01:37:48;;;;;;;29.75;12.82;;;;;;;9.59;72.50;98668.13;4135411;84;21725;-94
2021/04/02 01:43:54;;;;;;;26.37;12.35;;;;;;;9.45;72.78;98642.83;4145685;84;21183;-94
2021/04/02 01:50:01;;;;;;;29.98;15.40;;;;;;;9.49;73.69;98676.42;4150562;84;21254;-93
2021/04/02 01:56:07;;;;;;;33.18;15.70;;;;;;;9.66;73.40;98675.62;4152604;84;21158;-93
2021/04/02 02:02:12;;;;;;;32.05;16.07;;;;;;;9.78;73.30;98671.23;4150493;84;21191;-94
2021/04/02 02:08:18;;;;;;;36.42;17.07;;;;;;;9.95;73.10;98679.59;4125514;84;21243;-93
2021/04/02 02:14:27;;;;;;;33.58;15.78;;;;;;;10.03;72.96;98685.90;4071633;85;21224;-94
2021/04/02 02:20:41;;;;;;;31.02;14.90;;;;;;;10.07;73.04;98684.00;4066474;85;21334;-93
2021/04/02 02:26:45;;;;;;;32.33;15.63;;;;;;;10.00;73.11;98691.55;4018125;85;21224;-93
2021/04/02 02:32:55;;;;;;;31.70;14.43;;;;;;;10.00;72.91;98687.45;4051777;85;21238;-93
2021/04/02 02:38:59;;;;;;;28.32;13.48;;;;;;;9.87;73.24;98683.42;4041265;85;21378;-94
2021/04/02 02:45:11;;;;;;;28.35;12.75;;;;;;;9.83;73.82;98690.82;4019651;85;21209;-93
2021/04/02 02:51:17;;;;;;;29.15;13.40;;;;;;;9.99;73.96;98685.86;4085926;85;21242;-93
2021/04/02 02:57:28;;;;;;;26.87;15.08;;;;;;;10.02;74.10;98691.97;4078286;85;41483;-92
2021/04/02 03:03:32;;;;;;;26.85;14.95;;;;;;;10.10;74.06;98686.00;3919738;89;21855;-93
2021/04/02 03:09:40;;;;;;;34.27;15.55;;;;;;;10.20;74.04;98694.86;3918959;89;21644;-92
2021/04/02 03:15:44;;;;;;;27.75;14.25;;;;;;;10.06;74.39;98681.84;3939106;88;41432;-93
2021/04/02 03:21:57;;;;;;;25.30;13.55;;;;;;;9.81;74.68;98699.17;3982858;87;21683;-93
2021/04/02 03:28:05;;;;;;;30.92;14.43;;;;;;;9.95;74.98;98705.57;3984379;87;21217;-92
2021/04/02 09:58:25;;;;;;;8.33;6.35;;;;;;;8.91;67.35;99091.68;4365081;80;24152;-87
2021/04/02 10:04:27;;;;;;;11.70;7.95;;;;;;;8.67;66.05;99086.55;4234260;81;135145;-89
2021/04/02 10:10:29;;;;;;;12.82;8.68;;;;;;;8.23;65.89;99093.41;4165899;82;77117;-87
2021/04/02 10:23:23;;;;;;;9.63;6.42;;;;;;;8.18;66.38;99085.47;3985303;87;21213;-87
2021/04/02 10:29:31;;;;;;;8.40;6.17;;;;;;;8.66;61.91;99083.58;3959585;88;21391;-86
2021/04/02 10:35:33;;;;;;;10.35;7.05;;;;;;;9.45;63.02;99077.27;3992859;87;116213;-89
2021/04/02 10:42:08;;;;;;;7.80;5.80;;;;;;;9.77;62.99;99071.52;3943342;87;93680;-87
2021/04/02 10:48:11;;;;;;;7.40;5.78;;;;;;;10.00;62.61;99067.57;4047122;86;21248;-86
2021/04/02 10:54:12;;;;;;;9.70;6.62;;;;;;;11.12;62.65;99071.52;4058237;87;21248;-87
2021/04/02 11:00:17;;;;;;;8.50;6.40;;;;;;;12.16;58.82;99065.33;4053432;87;21236;-86
2021/04/02 11:06:19;;;;;;;6.97;6.28;;;;;;;12.64;60.10;99063.41;4064177;87;21663;-87
2021/04/02 11:19:17;;;;;;;10.75;5.83;;;;;;;11.60;58.89;99058.05;4056047;84;129234;-86
2021/04/02 11:25:18;;;;;;;6.87;6.17;;;;;;;12.32;59.98;99043.85;4169092;84;21217;-86
2021/04/02 11:31:21;;;;;;;6.75;6.00;;;;;;;13.58;57.90;99036.50;4171788;84;21239;-86
2021/04/02 11:37:23;;;;;;;8.78;6.72;;;;;;;14.35;54.60;99026.77;4146559;84;21228;-86
2021/04/02 11:43:25;;;;;;;7.15;6.30;;;;;;;14.84;54.74;99024.38;4155094;84;21365;-91
2021/04/02 11:49:26;;;;;;;7.30;5.20;;;;;;;15.14;54.44;99017.09;4137798;84;21200;-88
2021/04/02 11:55:38;;;;;;;5.67;4.90;;;;;;;14.69;53.56;99005.75;4147294;84;21348;-87
2021/04/02 12:01:39;;;;;;;5.35;4.78;;;;;;;14.72;52.68;98998.06;4124237;85;21592;-87
2021/04/02 12:07:41;;;;;;;6.08;5.00;;;;;;;14.58;49.48;98997.37;4107737;85;21170;-87
2021/04/02 16:04:11;;;;;;;17.00;11.22;;;;;;;11.02;47.55;98764.83;4081012;79;7478650;-93
2021/04/02 16:10:14;;;;;;;21.15;12.40;;;;;;;10.80;47.77;98753.55;4080626;86;21158;-91
2021/04/02 16:16:15;;;;;;;20.27;13.60;;;;;;;10.66;48.14;98755.62;4073476;84;89696;-85
2021/04/02 16:22:16;;;;;;;17.73;11.97;;;;;;;10.48;48.09;98753.32;4042613;87;21616;-92
2021/04/02 16:28:18;;;;;;;20.90;13.25;;;;;;;10.20;48.70;98750.94;4078863;84;37303;-88
2021/04/02 16:34:19;;;;;;;18.82;12.43;;;;;;;10.00;49.50;98749.55;4100929;86;21791;-89
2021/04/02 16:40:22;;;;;;;19.57;13.90;;;;;;;9.68;50.29;98745.13;4095223;86;21204;-93
2021/04/02 16:46:23;;;;;;;22.73;13.45;;;;;;;9.50;50.28;98751.80;4085406;84;25216;-89
2021/04/02 16:52:26;;;;;;;19.60;13.98;;;;;;;9.29;50.83;98750.16;4058739;86;21263;-88
2021/04/02 16:58:28;;;;;;;23.47;15.45;;;;;;;9.10;51.35;98750.31;4051026;86;21504;-89
2021/04/02 17:04:30;;;;;;;26.15;16.97;;;;;;;8.86;52.04;98741.80;4052680;86;21217;-95
2021/04/02 17:10:31;;;;;;;26.52;17.85;;;;;;;8.57;52.77;98746.05;4040326;86;21428;-90
2021/04/02 17:16:33;;;;;;;31.70;19.45;;;;;;;8.36;52.80;98745.75;4051750;86;21217;-87
2021/04/02 17:22:36;;;;;;;41.28;22.40;;;;;;;8.16;53.37;98755.70;4045947;87;21201;-87
2021/04/02 17:28:37;;;;;;;37.93;22.17;;;;;;;7.88;54.26;98757.34;4054810;87;21214;-87
2021/04/02 17:34:39;;;;;;;38.67;23.40;;;;;;;7.66;54.54;98768.44;4038237;88;21185;-86
2021/04/02 17:40:41;;;;;;;44.60;23.92;;;;;;;7.51;54.85;98770.69;4038552;86;21205;-93
2021/04/02 17:46:42;;;;;;;41.55;24.52;;;;;;;7.38;55.41;98780.14;4026779;87;21206;-85
2021/04/02 17:52:44;;;;;;;44.10;24.92;;;;;;;7.18;56.02;98786.73;4051345;87;21715;-93
2021/04/02 17:59:00;;;;;;;53.02;27.48;;;;;;;7.08;56.66;98780.48;4041843;86;21186;-86
2021/04/02 18:05:04;;;;;;;61.50;28.92;;;;;;;6.95;56.60;98780.42;4070968;87;21217;-88
2021/04/02 18:11:05;;;;;;;51.10;30.55;;;;;;;6.90;56.50;98784.77;4059017;86;21219;-92
2021/04/02 18:17:08;;;;;;;53.48;30.43;;;;;;;6.78;56.80;98783.50;4061932;86;21199;-91
2021/04/02 18:23:25;;;;;;;51.83;30.43;;;;;;;6.69;57.32;98777.48;3978371;88;21187;-89
2021/04/02 18:29:28;;;;;;;61.25;33.67;;;;;;;6.63;57.63;98793.06;3957296;88;21951;-86
2021/04/02 18:35:29;;;;;;;66.75;35.35;;;;;;;6.50;57.86;98798.41;3970595;89;21549;-93
2021/04/02 18:41:32;;;;;;;64.92;35.58;;;;;;;6.26;57.75;98806.17;4063850;86;21174;-89
2021/04/02 18:47:34;;;;;;;75.72;37.73;;;;;;;6.04;58.45;98808.93;4067346;84;131544;-85
2021/04/02 18:53:36;;;;;;;64.70;36.10;;;;;;;5.83;58.36;98796.70;4132991;86;21708;-85
2021/04/02 18:59:38;;;;;;;93.30;49.05;;;;;;;5.66;58.99;98796.43;4136525;85;21160;-93
2021/04/02 19:05:53;;;;;;;79.80;45.08;;;;;;;5.57;59.81;98788.22;4129570;85;21200;-85
2021/04/02 19:11:55;;;;;;;72.12;37.95;;;;;;;5.46;59.86;98782.50;4134833;86;21985;-86
2021/04/02 19:17:57;;;;;;;72.75;38.40;;;;;;;5.07;60.21;98782.52;4131466;86;21193;-92
2021/04/02 19:23:59;;;;;;;94.40;45.15;;;;;;;4.90;61.46;98787.66;4127152;84;21481;-93
2021/04/02 19:30:01;;;;;;;80.22;42.93;;;;;;;4.63;62.01;98787.81;4114263;85;21350;-87
2021/04/02 19:36:03;;;;;;;95.90;44.13;;;;;;;4.63;62.06;98778.88;4136658;86;21228;-93
2021/04/02 19:42:06;;;;;;;75.20;40.70;;;;;;;4.55;63.67;98763.53;4110689;85;76924;-87
2021/04/02 19:48:08;;;;;;;80.28;41.73;;;;;;;4.46;63.79;98766.34;4033287;86;112229;-92
2021/04/02 19:54:10;;;;;;;73.52;37.15;;;;;;;4.43;64.10;98769.73;3866198;88;9999709;-86
2021/04/02 20:00:20;;;;;;;78.90;39.38;;;;;;;4.55;64.04;98767.59;3982129;88;21254;-85
2021/04/02 20:06:22;;;;;;;95.25;44.08;;;;;;;4.41;65.80;98775.28;3968663;89;21515;-88
2021/04/02 20:12:24;;;;;;;86.22;44.60;;;;;;;4.38;65.15;98775.41;3971852;88;21211;-85
2021/04/02 20:18:26;;;;;;;87.45;43.33;;;;;;;4.35;65.18;98775.29;3977512;88;21189;-85
2021/04/02 20:24:27;;;;;;;85.35;43.90;;;;;;;4.34;65.46;98761.50;3971192;88;21234;-92
2021/04/02 20:30:32;;;;;;;84.05;42.45;;;;;;;4.34;65.43;98752.81;3975687;88;21165;-93
2021/04/02 20:36:34;;;;;;;89.85;45.35;;;;;;;4.43;65.90;98750.77;3978292;88;21236;-92
2021/04/02 20:42:35;;;;;;;91.53;45.25;;;;;;;4.36;66.13;98737.56;3977379;89;21359;-93
2021/04/02 20:48:40;;;;;;;100.47;50.17;;;;;;;4.34;66.79;98741.17;3976035;88;21160;-92
2021/04/02 20:54:46;;;;;;;86.42;43.80;;;;;;;4.27;66.28;98727.42;3976879;88;21173;-92
2021/04/02 21:00:48;;;;;;;93.07;45.10;;;;;;;4.12;66.91;98713.98;3988258;89;21610;-85
2021/04/02 21:13:55;;;;;;;91.57;44.50;;;;;;;4.20;67.07;98739.38;4003635;88;21205;-85
2021/04/02 21:19:56;;;;;;;87.75;44.80;;;;;;;4.08;68.28;98755.08;4004477;87;21177;-85
2021/04/02 21:25:58;;;;;;;102.47;50.05;;;;;;;4.07;67.35;98746.70;4012041;88;21202;-87
2021/04/02 21:31:59;;;;;;;99.35;49.33;;;;;;;3.90;67.97;98724.48;4003976;88;21341;-93
2021/04/02 21:38:09;;;;;;;96.25;44.73;;;;;;;3.83;68.21;98716.12;4016245;88;21161;-92
2021/04/02 21:44:11;;;;;;;90.40;43.70;;;;;;;3.91;68.61;98703.84;3999586;88;21218;-92
2021/04/02 21:50:22;;;;;;;95.65;46.50;;;;;;;4.01;68.95;98709.38;4011245;88;21741;-92
2021/04/02 21:56:24;;;;;;;109.42;49.85;;;;;;;4.06;68.84;98718.05;4001828;88;21210;-85
2021/04/02 22:02:26;;;;;;;109.05;51.05;;;;;;;4.05;68.81;98712.97;3990577;87;21190;-85
2021/04/02 22:08:30;;;;;;;95.83;46.37;;;;;;;4.04;69.13;98716.81;3978469;89;21362;-84
2021/04/02 22:14:32;;;;;;;94.90;46.77;;;;;;;3.89;69.21;98726.95;3972955;88;21141;-84
2021/04/02 22:20:36;;;;;;;96.45;45.50;;;;;;;3.90;69.42;98741.50;4111532;85;21174;-93
2021/04/02 22:26:39;;;;;;;105.63;50.70;;;;;;;3.81;69.31;98748.95;4126522;84;21330;-92
2021/04/02 22:32:42;;;;;;;102.87;48.75;;;;;;;3.68;69.48;98750.63;4116338;85;21188;-92
2021/04/02 22:38:46;;;;;;;217.45;78.85;;;;;;;3.48;69.77;98754.19;4100409;85;21209;-84
2021/04/02 22:44:48;;;;;;;172.20;61.95;;;;;;;3.34;69.97;98750.95;4120094;85;21778;-92
2021/04/02 22:50:52;;;;;;;122.92;50.90;;;;;;;3.20;70.21;98760.72;4122231;84;21228;-93
2021/04/02 22:56:54;;;;;;;103.97;51.30;;;;;;;3.23;70.50;98754.09;4114320;85;21883;-92
2021/04/02 23:02:56;;;;;;;100.30;48.85;;;;;;;3.32;71.00;98755.93;4129319;85;21133;-87
2021/04/02 23:08:58;;;;;;;109.92;52.13;;;;;;;3.49;71.25;98761.17;4133289;85;21163;-87
2021/04/02 23:14:59;;;;;;;108.65;49.50;;;;;;;3.64;72.01;98766.73;4122250;84;21155;-85
2021/04/02 23:21:01;;;;;;;134.90;56.30;;;;;;;3.88;71.95;98771.41;4138766;85;21352;-84
2021/04/02 23:27:03;;;;;;;119.37;54.75;;;;;;;3.91;71.96;98772.09;4129082;85;21843;-87
2021/04/02 23:33:11;;;;;;;114.03;54.77;;;;;;;3.99;73.05;98777.42;4046777;87;21336;-87
2021/04/02 23:39:14;;;;;;;103.72;50.35;;;;;;;4.00;73.15;98770.06;4016233;87;21175;-87
2021/04/02 23:45:15;;;;;;;107.27;54.55;;;;;;;4.09;72.48;98761.27;4044511;87;21195;-87
2021/04/02 23:51:17;;;;;;;110.15;52.00;;;;;;;4.13;72.63;98768.95;4051426;87;21337;-85
2021/04/02 23:57:19;;;;;;;111.75;55.98;;;;;;;4.25;72.57;98758.91;4009203;87;21697;-87
